createdAt,value
2017-07-17T11:32:52.754Z,16.14
2017-07-17T11:33:05.663Z,16.17
2017-07-17T11:33:18.586Z,16.1
2017-07-17T11:33:31.491Z,16.16
2017-07-17T11:33:44.934Z,16.26
2017-07-17T11:33:57.878Z,16.17
2017-07-17T11:34:11.301Z,16.16
2017-07-17T11:34:24.239Z,16.32
2017-07-17T11:34:37.754Z,16.33
2017-07-17T11:34:50.753Z,16.36
2017-07-17T11:35:04.137Z,16.33
2017-07-17T11:35:17.095Z,16.33
2017-07-17T11:35:29.511Z,16.33
2017-07-17T11:35:41.371Z,16.33
2017-07-17T11:35:54.853Z,16.34
2017-07-17T11:36:07.245Z,16.34
2017-07-17T11:36:20.737Z,16.33
2017-07-17T11:36:34.207Z,16.42
2017-07-17T11:36:47.124Z,16.34
2017-07-17T11:37:00.618Z,16.37
2017-07-17T11:37:13.559Z,16.39
2017-07-17T11:37:25.952Z,16.44
2017-07-17T11:37:38.865Z,16.36
2017-07-17T11:37:51.685Z,16.45
2017-07-17T11:38:05.098Z,16.39
2017-07-17T11:38:18.021Z,16.48
2017-07-17T11:38:30.976Z,16.45
2017-07-17T11:38:43.353Z,16.44
2017-07-17T11:38:56.759Z,16.39
2017-07-17T11:39:09.659Z,16.49
2017-07-17T11:39:23.111Z,16.44
2017-07-17T11:39:36.603Z,16.48
2017-07-17T11:39:48.490Z,16.55
2017-07-17T11:40:01.403Z,16.57
2017-07-17T11:40:14.366Z,16.54
2017-07-17T11:40:27.848Z,16.54
2017-07-17T11:40:41.286Z,16.58
2017-07-17T11:40:54.214Z,16.54
2017-07-17T11:41:06.619Z,16.55
2017-07-17T11:41:19.551Z,16.65
2017-07-17T11:41:32.502Z,16.62
2017-07-17T11:41:44.876Z,16.59
2017-07-17T11:41:57.260Z,16.62
2017-07-17T11:42:09.747Z,16.62
2017-07-17T11:42:23.259Z,16.69
2017-07-17T11:42:35.671Z,16.69
2017-07-17T11:42:47.555Z,16.7
2017-07-17T11:43:00.968Z,16.73
2017-07-17T11:43:14.400Z,16.74
2017-07-17T11:43:27.841Z,16.73
2017-07-17T11:43:40.825Z,16.67
2017-07-17T11:43:52.733Z,16.7
2017-07-17T11:44:05.160Z,16.67
2017-07-17T11:44:17.490Z,16.69
2017-07-17T11:44:30.408Z,16.81
2017-07-17T11:44:43.882Z,16.76
2017-07-17T11:44:57.337Z,16.76
2017-07-17T11:45:10.796Z,16.8
2017-07-17T11:45:23.736Z,16.87
2017-07-17T11:45:36.081Z,16.76
2017-07-17T11:45:47.959Z,16.8
2017-07-17T11:56:11.735Z,17.18
2017-07-17T11:56:25.184Z,17.24
2017-07-17T11:56:38.669Z,17.27
2017-07-17T11:56:52.022Z,17.25
2017-07-17T11:57:05.515Z,17.22
2017-07-17T11:57:18.968Z,17.21
2017-07-17T11:58:17.308Z,17.28
2017-07-17T11:58:30.758Z,17.31
2017-07-17T11:58:43.659Z,17.31
2017-07-17T11:58:57.142Z,17.3
2017-07-17T11:59:10.616Z,17.42
2017-07-17T11:59:24.034Z,17.38
2017-07-17T11:59:37.410Z,17.38
2017-07-17T11:59:50.327Z,17.42
2017-07-17T12:00:03.253Z,17.32
2017-07-17T12:00:16.710Z,17.4
2017-07-17T12:00:30.118Z,17.4
2017-07-17T12:00:43.640Z,17.4
2017-07-17T12:00:57.067Z,17.36
2017-07-17T12:01:10.484Z,17.4
2017-07-17T12:01:23.890Z,17.45
2017-07-17T12:01:36.823Z,17.43
2017-07-17T12:01:50.260Z,17.45
2017-07-17T12:02:03.668Z,17.45
2017-07-17T12:02:17.080Z,17.42
2017-07-17T12:02:30.521Z,17.43
2017-07-17T12:02:43.931Z,17.46
2017-07-17T12:02:57.409Z,17.4
2017-07-17T12:03:10.851Z,17.5
2017-07-17T12:03:24.249Z,17.55
2017-07-17T12:03:37.675Z,17.42
2017-07-17T12:03:51.144Z,17.6
2017-07-17T12:04:04.575Z,17.57
2017-07-17T12:04:18.045Z,17.5
2017-07-17T12:04:31.519Z,17.54
2017-07-17T12:04:44.415Z,17.46
2017-07-17T12:05:44.095Z,17.55
2017-07-17T12:05:56.520Z,17.55
2017-07-17T12:06:09.457Z,17.55
2017-07-17T12:06:22.401Z,17.58
2017-07-17T12:06:35.827Z,17.55
2017-07-17T12:06:48.789Z,17.57
2017-07-17T12:07:01.687Z,17.6
2017-07-17T12:07:14.617Z,17.65
2017-07-17T12:07:27.504Z,17.71
2017-07-17T12:07:40.959Z,17.63
2017-07-17T12:07:52.807Z,17.66
2017-07-17T12:08:06.256Z,17.74
2017-07-17T12:08:19.260Z,17.71
2017-07-17T12:08:32.928Z,17.73
2017-07-17T12:08:45.823Z,17.65
2017-07-17T12:08:59.269Z,17.69
2017-07-17T12:09:12.202Z,17.65
2017-07-17T12:09:25.626Z,17.76
2017-07-17T12:09:38.491Z,17.79
2017-07-17T12:09:51.449Z,17.69
2017-07-17T12:10:04.930Z,17.69
2017-07-17T12:10:18.382Z,17.69
2017-07-17T12:10:31.875Z,17.71
2017-07-17T12:10:45.284Z,17.69
2017-07-17T12:10:58.173Z,17.73
2017-07-17T12:11:11.068Z,17.68
2017-07-17T12:11:24.710Z,17.71
2017-07-17T12:11:37.682Z,17.76
2017-07-17T12:11:51.171Z,17.74
2017-07-17T12:12:04.042Z,17.8
2017-07-17T12:12:15.881Z,17.87
2017-07-17T12:12:28.786Z,17.79
2017-07-17T12:12:41.711Z,17.8
2017-07-17T12:12:54.650Z,17.81
2017-07-17T12:13:08.079Z,17.81
2017-07-17T12:13:21.497Z,17.84
2017-07-17T12:13:33.903Z,17.84
2017-07-17T12:13:46.817Z,17.87
2017-07-17T12:14:00.299Z,17.94
2017-07-17T12:14:12.650Z,17.95
2017-07-17T12:14:24.981Z,17.92
2017-07-17T12:14:37.914Z,17.9
2017-07-17T12:14:50.855Z,17.94
2017-07-17T12:15:03.819Z,17.88
2017-07-17T12:15:17.243Z,17.95
2017-07-17T12:15:30.737Z,18.01
2017-07-17T12:15:43.682Z,17.95
2017-07-17T12:15:56.066Z,18.01
2017-07-17T12:16:09.005Z,17.99
2017-07-17T12:16:21.906Z,17.98
2017-07-17T12:16:34.807Z,18.05
2017-07-17T12:16:47.705Z,18.01
2017-07-17T12:17:01.183Z,17.98
2017-07-17T12:17:14.627Z,17.98
2017-07-17T12:17:27.557Z,17.98
2017-07-17T12:17:39.904Z,18.02
2017-07-17T12:17:52.861Z,18.01
2017-07-17T12:18:06.306Z,18.08
2017-07-17T12:18:19.749Z,17.95
2017-07-17T12:18:33.443Z,18.01
2017-07-17T12:18:46.813Z,18.01
2017-07-17T12:18:58.641Z,17.98
2017-07-17T12:19:12.086Z,18.02
2017-07-17T12:19:25.521Z,18.01
2017-07-17T12:19:39.009Z,18.01
2017-07-17T12:19:51.450Z,17.98
2017-07-17T12:20:04.386Z,18.03
2017-07-17T12:20:17.878Z,18.08
2017-07-17T12:20:30.810Z,18.13
2017-07-17T12:20:43.684Z,18.08
2017-07-17T12:20:56.117Z,18.11
2017-07-17T12:21:09.555Z,18.14
2017-07-17T12:21:21.380Z,18.05
2017-07-17T12:21:34.851Z,18.11
2017-07-17T12:21:48.288Z,18.16
2017-07-17T12:22:00.704Z,18.14
2017-07-17T12:22:13.653Z,18.14
2017-07-17T12:22:26.540Z,18.1
2017-07-17T12:22:38.383Z,18.16
2017-07-17T12:22:51.879Z,18.19
2017-07-17T12:23:05.325Z,18.14
2017-07-17T12:23:18.730Z,18.16
2017-07-17T12:23:31.616Z,18.14
2017-07-17T12:23:45.042Z,18.11
2017-07-17T12:23:57.385Z,18.11
2017-07-17T12:24:10.849Z,18.11
2017-07-17T12:24:23.709Z,18.13
2017-07-17T12:24:36.658Z,18.16
2017-07-17T12:24:50.206Z,18.2
2017-07-17T12:25:03.727Z,18.21
2017-07-17T12:25:16.047Z,18.2
2017-07-17T12:25:28.951Z,18.23
2017-07-17T12:25:41.313Z,18.2
2017-07-17T12:25:54.826Z,18.26
2017-07-17T12:26:07.224Z,18.23
2017-07-17T12:26:20.654Z,18.29
2017-07-17T12:26:33.553Z,18.27
2017-07-17T12:26:46.407Z,18.32
2017-07-17T12:26:59.866Z,18.27
2017-07-17T12:27:12.794Z,18.29
2017-07-17T12:27:26.230Z,18.36
2017-07-17T12:27:39.118Z,18.36
2017-07-17T12:27:52.586Z,18.34
2017-07-17T12:28:05.539Z,18.34
2017-07-17T12:28:19.018Z,18.36
2017-07-17T12:28:31.919Z,18.31
2017-07-17T12:28:45.355Z,18.31
2017-07-17T12:28:58.860Z,18.38
2017-07-17T12:29:11.754Z,18.31
2017-07-17T12:29:24.638Z,18.34
2017-07-17T12:29:37.587Z,18.41
2017-07-17T12:29:51.046Z,18.39
2017-07-17T12:30:03.417Z,18.42
2017-07-17T12:30:16.871Z,18.47
2017-07-17T12:30:29.807Z,18.38
2017-07-17T12:30:43.348Z,18.36
2017-07-17T12:30:56.811Z,18.41
2017-07-17T12:31:10.225Z,18.45
2017-07-17T12:31:23.100Z,18.39
2017-07-17T12:31:35.456Z,18.45
2017-07-17T12:31:48.903Z,18.42
2017-07-17T12:32:01.810Z,18.39
2017-07-17T12:32:15.219Z,18.39
2017-07-17T12:32:28.672Z,18.47
2017-07-17T12:32:41.563Z,18.47
2017-07-17T12:32:54.384Z,18.42
2017-07-17T12:33:07.291Z,18.42
2017-07-17T12:33:20.290Z,18.42
2017-07-17T12:33:33.750Z,18.47
2017-07-17T12:33:46.097Z,18.5
2017-07-17T12:33:59.588Z,18.56
2017-07-17T12:34:13.043Z,18.54
2017-07-17T12:34:25.978Z,18.5
2017-07-17T12:34:39.420Z,18.54
2017-07-17T12:34:52.295Z,18.47
2017-07-17T12:35:06.040Z,18.49
2017-07-17T12:35:19.844Z,18.61
2017-07-17T12:35:32.799Z,18.6
2017-07-17T12:35:45.176Z,18.61
2017-07-17T12:35:58.056Z,18.54
2017-07-17T12:36:10.982Z,18.63
2017-07-17T12:36:23.971Z,18.53
2017-07-17T12:36:36.860Z,18.6
2017-07-17T12:36:50.256Z,18.59
2017-07-17T12:37:03.171Z,18.54
2017-07-17T12:37:16.103Z,18.54
2017-07-17T12:37:29.536Z,18.59
2017-07-17T12:37:43.015Z,18.65
2017-07-17T12:37:55.961Z,18.71
2017-07-17T12:38:08.367Z,18.65
2017-07-17T12:38:20.750Z,18.71
2017-07-17T12:38:34.217Z,18.68
2017-07-17T12:38:47.613Z,18.66
2017-07-17T12:39:01.104Z,18.66
2017-07-17T12:39:13.987Z,18.68
2017-07-17T12:39:26.951Z,18.63
2017-07-17T12:39:40.407Z,18.75
2017-07-17T12:39:53.799Z,18.71
2017-07-17T12:40:07.205Z,18.69
2017-07-17T12:40:19.658Z,18.71
2017-07-17T12:40:33.088Z,18.69
2017-07-17T12:40:45.981Z,18.74
2017-07-17T12:40:59.416Z,18.65
2017-07-17T12:41:12.846Z,18.69
2017-07-17T12:41:26.309Z,18.78
2017-07-17T12:41:39.694Z,18.78
2017-07-17T12:41:52.655Z,18.81
2017-07-17T12:42:05.593Z,18.81
2017-07-17T12:42:19.079Z,18.79
2017-07-17T12:42:31.997Z,18.81
2017-07-17T12:42:44.949Z,18.86
2017-07-17T12:42:57.894Z,18.84
2017-07-17T12:43:11.344Z,18.82
2017-07-17T12:43:24.287Z,18.78
2017-07-17T12:43:37.719Z,18.84
2017-07-17T12:43:50.580Z,18.78
2017-07-17T12:44:04.013Z,18.91
2017-07-17T12:44:17.427Z,18.93
2017-07-17T12:44:30.340Z,18.94
2017-07-17T12:44:43.311Z,18.94
2017-07-17T12:44:56.263Z,18.89
2017-07-17T12:45:09.212Z,18.94
2017-07-17T12:45:22.609Z,18.97
2017-07-17T12:45:35.549Z,18.93
2017-07-17T12:45:48.469Z,19.05
2017-07-17T12:46:01.920Z,19.05
2017-07-17T12:46:14.886Z,19.05
2017-07-17T12:46:28.342Z,19.05
2017-07-17T12:46:41.808Z,19.06
2017-07-17T12:46:55.296Z,18.96
2017-07-17T12:47:08.219Z,19.12
2017-07-17T12:47:20.054Z,19.06
2017-07-17T12:47:33.485Z,19.09
2017-07-17T12:47:46.890Z,19
2017-07-17T12:48:00.319Z,19.15
2017-07-17T12:48:13.193Z,19.05
2017-07-17T12:48:26.639Z,19.16
2017-07-17T12:48:40.557Z,19.13
2017-07-17T12:48:54.023Z,19.2
2017-07-17T12:49:06.435Z,19.13
2017-07-17T12:49:19.409Z,19.16
2017-07-17T12:49:32.347Z,19.25
2017-07-17T12:49:45.262Z,19.19
2017-07-17T12:49:58.742Z,19.23
2017-07-17T12:50:12.173Z,19.16
2017-07-17T12:50:25.641Z,19.23
2017-07-17T12:50:38.537Z,19.2
2017-07-17T12:50:51.934Z,19.28
2017-07-17T12:51:05.404Z,19.23
2017-07-17T12:51:18.295Z,19.23
2017-07-17T12:51:30.682Z,19.3
2017-07-17T12:51:43.585Z,19.32
2017-07-17T12:51:57.054Z,19.27
2017-07-17T12:52:10.530Z,19.28
2017-07-17T12:52:24.016Z,19.27
2017-07-17T12:52:36.361Z,19.25
2017-07-17T12:52:48.236Z,19.27
2017-07-17T12:53:01.602Z,19.37
2017-07-17T12:53:14.569Z,19.38
2017-07-17T12:53:27.455Z,19.38
2017-07-17T12:53:40.944Z,19.4
2017-07-17T12:53:53.922Z,19.43
2017-07-17T12:54:06.836Z,19.38
2017-07-17T12:54:20.316Z,19.38
2017-07-17T12:54:33.737Z,19.38
2017-07-17T12:54:46.086Z,19.38
2017-07-17T12:54:58.960Z,19.34
2017-07-17T12:55:10.274Z,19.38
2017-07-17T12:55:23.727Z,19.43
2017-07-17T12:55:37.131Z,19.46
2017-07-17T12:55:50.583Z,19.45
2017-07-17T12:56:04.033Z,19.43
2017-07-17T12:56:16.435Z,19.46
2017-07-17T12:56:29.380Z,19.42
2017-07-17T12:56:42.853Z,19.38
2017-07-17T12:56:56.254Z,19.42
2017-07-17T12:57:09.691Z,19.45
2017-07-17T12:57:22.572Z,19.4
2017-07-17T12:57:36.020Z,19.43
2017-07-17T12:57:48.883Z,19.38
2017-07-17T12:58:02.305Z,19.52
2017-07-17T12:58:15.197Z,19.47
2017-07-17T12:58:28.683Z,19.49
2017-07-17T12:58:42.251Z,19.53
2017-07-17T12:58:55.196Z,19.55
2017-07-17T12:59:07.569Z,19.47
2017-07-17T12:59:20.507Z,19.49
2017-07-17T12:59:34.021Z,19.47
2017-07-17T12:59:47.475Z,19.55
2017-07-17T13:00:00.952Z,19.55
2017-07-17T13:00:14.403Z,19.65
2017-07-17T13:00:27.345Z,19.65
2017-07-17T13:00:40.798Z,19.57
2017-07-17T13:00:54.255Z,19.56
2017-07-17T13:01:07.110Z,19.57
2017-07-17T13:01:19.457Z,19.57
2017-07-17T13:01:32.832Z,19.57
2017-07-17T13:01:45.754Z,19.63
2017-07-17T13:01:59.220Z,19.67
2017-07-17T13:02:11.547Z,19.64
2017-07-17T13:02:23.863Z,19.65
2017-07-17T13:02:37.264Z,19.65
2017-07-17T13:02:50.190Z,19.67
2017-07-17T13:03:03.161Z,19.65
2017-07-17T13:03:16.107Z,19.68
2017-07-17T13:03:28.980Z,19.7
2017-07-17T13:03:41.836Z,19.7
2017-07-17T13:03:53.252Z,19.78
2017-07-17T13:04:06.140Z,19.72
2017-07-17T13:04:19.563Z,19.67
2017-07-17T13:04:32.960Z,19.72
2017-07-17T13:04:45.899Z,19.72
2017-07-17T13:04:59.364Z,19.74
2017-07-17T13:05:11.767Z,19.74
2017-07-17T13:05:25.216Z,19.72
2017-07-17T13:05:38.670Z,19.74
2017-07-17T13:05:51.630Z,19.82
2017-07-17T13:06:05.106Z,19.78
2017-07-17T13:06:18.612Z,19.78
2017-07-17T13:06:32.130Z,19.75
2017-07-17T13:06:44.995Z,19.79
2017-07-17T13:06:58.415Z,19.89
2017-07-17T13:07:11.890Z,19.9
2017-07-17T13:07:24.814Z,19.93
2017-07-17T13:07:38.302Z,19.85
2017-07-17T13:07:51.781Z,19.89
2017-07-17T13:08:05.269Z,19.86
2017-07-17T13:08:17.644Z,19.8
2017-07-17T13:08:31.063Z,19.86
2017-07-17T13:08:43.890Z,19.86
2017-07-17T13:08:57.390Z,19.92
2017-07-17T13:09:10.867Z,19.97
2017-07-17T13:09:23.682Z,19.95
2017-07-17T13:09:36.668Z,19.92
2017-07-17T13:09:49.028Z,20
2017-07-17T13:10:02.006Z,19.95
2017-07-17T13:10:14.958Z,19.93
2017-07-17T13:10:28.467Z,20
2017-07-17T13:10:41.381Z,19.97
2017-07-17T13:10:54.313Z,19.98
2017-07-17T13:11:07.249Z,20
2017-07-17T13:11:20.939Z,20.01
2017-07-17T13:11:34.420Z,20.1
2017-07-17T13:11:47.878Z,19.95
2017-07-17T13:12:00.785Z,20.05
2017-07-17T13:12:14.241Z,20.1
2017-07-17T13:12:27.159Z,20.12
2017-07-17T13:12:40.604Z,20.07
2017-07-17T13:12:54.082Z,20.11
2017-07-17T13:13:06.452Z,20.12
2017-07-17T13:13:19.972Z,20.16
2017-07-17T13:13:33.443Z,20.18
2017-07-17T13:13:46.367Z,20.2
2017-07-17T13:13:59.832Z,20.19
2017-07-17T13:14:13.302Z,20.18
2017-07-17T13:14:26.697Z,20.12
2017-07-17T13:14:39.655Z,20.22
2017-07-17T13:14:53.056Z,20.18
2017-07-17T13:15:06.487Z,20.18
2017-07-17T13:15:20.032Z,20.16
2017-07-17T13:15:32.952Z,20.2
2017-07-17T13:15:45.903Z,20.2
2017-07-17T13:15:58.789Z,20.2
2017-07-17T13:16:11.182Z,20.22
2017-07-17T13:16:24.115Z,20.2
2017-07-17T13:16:37.629Z,20.27
2017-07-17T13:16:50.530Z,20.23
2017-07-17T13:17:03.416Z,20.27
2017-07-17T13:17:18.559Z,20.27
2017-07-17T13:17:32.048Z,20.27
2017-07-17T13:17:45.469Z,20.29
2017-07-17T13:17:58.331Z,20.3
2017-07-17T13:18:11.768Z,20.27
2017-07-17T13:18:25.230Z,20.32
2017-07-17T13:18:38.686Z,20.32
2017-07-17T13:18:52.551Z,20.3
2017-07-17T13:19:05.440Z,20.29
2017-07-17T13:19:18.305Z,20.25
2017-07-17T13:19:31.795Z,20.29
2017-07-17T13:19:44.700Z,20.22
2017-07-17T13:19:58.133Z,20.26
2017-07-17T13:20:11.138Z,20.34
2017-07-17T13:20:24.659Z,20.37
2017-07-17T13:20:38.063Z,20.3
2017-07-17T13:20:50.495Z,20.22
2017-07-17T13:21:03.505Z,20.32
2017-07-17T13:21:16.950Z,20.42
2017-07-17T13:21:29.315Z,20.3
2017-07-17T13:21:42.806Z,20.37
2017-07-17T13:21:56.487Z,20.35
2017-07-17T13:22:09.458Z,20.35
2017-07-17T13:22:22.372Z,20.37
2017-07-17T13:22:35.833Z,20.42
2017-07-17T13:22:49.263Z,20.48
2017-07-17T13:23:02.713Z,20.51
2017-07-17T13:23:15.730Z,20.53
2017-07-17T13:23:29.234Z,20.42
2017-07-17T13:23:42.679Z,20.48
2017-07-17T13:23:55.593Z,20.61
2017-07-17T13:24:08.516Z,20.64
2017-07-17T13:24:20.891Z,20.48
2017-07-17T13:24:33.322Z,20.6
2017-07-17T13:24:45.677Z,20.64
2017-07-17T13:24:59.146Z,20.6
2017-07-17T13:25:12.046Z,20.58
2017-07-17T13:25:24.918Z,20.64
2017-07-17T13:25:37.769Z,20.61
2017-07-17T13:25:50.695Z,20.56
2017-07-17T13:26:04.142Z,20.64
2017-07-17T13:26:17.581Z,20.61
2017-07-17T13:26:30.505Z,20.56
2017-07-17T13:26:43.953Z,20.72
2017-07-17T13:26:57.480Z,20.67
2017-07-17T13:27:10.425Z,20.76
2017-07-17T13:27:23.919Z,20.67
2017-07-17T13:27:36.813Z,20.67
2017-07-17T13:27:49.765Z,20.67
2017-07-17T13:28:03.247Z,20.63
2017-07-17T13:28:16.149Z,20.71
2017-07-17T13:28:29.061Z,20.68
2017-07-17T13:28:42.000Z,20.72
2017-07-17T13:28:54.337Z,20.68
2017-07-17T13:29:07.877Z,20.79
2017-07-17T13:29:20.759Z,20.81
2017-07-17T13:29:34.220Z,20.76
2017-07-17T13:29:47.142Z,20.83
2017-07-17T13:30:00.046Z,20.82
2017-07-17T13:30:13.517Z,20.82
2017-07-17T13:30:26.959Z,20.83
2017-07-17T13:30:39.905Z,20.81
2017-07-17T13:30:52.863Z,20.79
2017-07-17T13:31:05.215Z,20.82
2017-07-17T13:31:18.061Z,20.78
2017-07-17T13:31:31.532Z,20.86
2017-07-17T13:31:43.925Z,20.83
2017-07-17T13:31:56.888Z,20.82
2017-07-17T13:32:09.792Z,20.79
2017-07-17T13:32:22.725Z,20.86
2017-07-17T13:32:36.112Z,20.85
2017-07-17T13:32:48.990Z,20.81
2017-07-17T13:33:01.915Z,20.85
2017-07-17T13:33:14.850Z,20.94
2017-07-17T13:33:28.269Z,20.88
2017-07-17T13:33:41.214Z,20.94
2017-07-17T13:33:54.680Z,20.97
2017-07-17T13:34:08.514Z,20.96
2017-07-17T13:34:21.985Z,20.88
2017-07-17T13:34:34.910Z,20.91
2017-07-17T13:34:47.892Z,20.88
2017-07-17T13:35:01.869Z,20.96
2017-07-17T13:35:15.661Z,20.88
2017-07-17T13:35:28.081Z,20.91
2017-07-17T13:35:41.565Z,20.97
2017-07-17T13:35:54.998Z,20.96
2017-07-17T13:36:08.495Z,20.96
2017-07-17T13:36:20.845Z,20.97
2017-07-17T13:36:34.312Z,20.96
2017-07-17T13:36:47.752Z,21
2017-07-17T13:37:01.200Z,21.03
2017-07-17T13:37:14.102Z,20.97
2017-07-17T13:37:27.566Z,20.96
2017-07-17T13:37:40.974Z,21.04
2017-07-17T13:37:53.329Z,20.96
2017-07-17T13:38:06.762Z,21.01
2017-07-17T13:38:18.601Z,20.97
2017-07-17T13:38:32.053Z,21.03
2017-07-17T13:38:45.529Z,21.01
2017-07-17T13:38:58.475Z,21.01
2017-07-17T13:39:11.624Z,21.03
2017-07-17T13:39:25.061Z,21.08
2017-07-17T13:39:37.972Z,21.08
2017-07-17T13:39:51.410Z,21.11
2017-07-17T13:40:04.891Z,21.09
2017-07-17T13:40:17.865Z,21.12
2017-07-17T13:40:31.373Z,21.21
2017-07-17T13:40:44.249Z,21.12
2017-07-17T13:40:57.146Z,21.16
2017-07-17T13:41:09.588Z,21.22
2017-07-17T13:41:22.526Z,21.12
2017-07-17T13:41:35.961Z,21.13
2017-07-17T13:41:48.827Z,21.21
2017-07-17T13:42:02.216Z,21.25
2017-07-17T13:42:15.122Z,21.19
2017-07-17T13:42:28.079Z,21.23
2017-07-17T13:42:41.515Z,21.19
2017-07-17T13:42:55.010Z,21.23
2017-07-17T13:43:07.867Z,21.22
2017-07-17T13:43:21.276Z,21.27
2017-07-17T13:43:33.629Z,21.27
2017-07-17T13:43:47.107Z,21.28
2017-07-17T13:43:59.985Z,21.28
2017-07-17T13:44:13.462Z,21.27
2017-07-17T13:44:26.887Z,21.21
2017-07-17T13:44:40.353Z,21.27
2017-07-17T13:44:52.224Z,21.21
2017-07-17T13:45:04.611Z,21.31
2017-07-17T13:45:18.048Z,21.23
2017-07-17T13:45:30.953Z,21.38
2017-07-17T13:45:43.333Z,21.4
2017-07-17T13:45:56.762Z,21.31
2017-07-17T13:46:09.666Z,21.25
2017-07-17T13:46:22.544Z,21.34
2017-07-17T13:46:36.047Z,21.34
2017-07-17T13:46:48.393Z,21.33
2017-07-17T13:47:01.818Z,21.34
2017-07-17T13:47:14.704Z,21.33
2017-07-17T13:47:28.135Z,21.34
2017-07-17T13:47:41.082Z,21.38
2017-07-17T13:47:54.005Z,21.33
2017-07-17T13:48:07.485Z,21.41
2017-07-17T13:48:20.418Z,21.48
2017-07-17T13:48:32.804Z,21.41
2017-07-17T13:48:45.152Z,21.48
2017-07-17T13:48:58.084Z,21.46
2017-07-17T13:49:11.431Z,21.45
2017-07-17T13:49:24.908Z,21.49
2017-07-17T13:49:38.348Z,21.45
2017-07-17T13:49:51.301Z,21.41
2017-07-17T13:50:04.254Z,21.41
2017-07-17T13:50:16.626Z,21.48
2017-07-17T13:50:30.072Z,21.48
2017-07-17T13:50:42.949Z,21.45
2017-07-17T13:50:55.343Z,21.46
2017-07-17T13:51:08.279Z,21.41
2017-07-17T13:51:21.247Z,21.41
2017-07-17T13:51:33.630Z,21.45
2017-07-17T13:51:47.084Z,21.4
2017-07-17T13:51:59.510Z,21.51
2017-07-17T13:52:11.903Z,21.51
2017-07-17T13:52:25.393Z,21.45
2017-07-17T13:52:37.797Z,21.49
2017-07-17T13:52:50.172Z,21.48
2017-07-17T13:53:02.796Z,21.55
2017-07-17T13:53:15.216Z,21.45
2017-07-17T13:53:28.704Z,21.49
2017-07-17T13:53:42.136Z,21.48
2017-07-17T13:53:55.593Z,21.41
2017-07-17T13:54:08.167Z,21.49
2017-07-17T13:54:21.652Z,21.53
2017-07-17T13:54:35.102Z,21.52
2017-07-17T13:54:48.053Z,21.53
2017-07-17T13:55:01.503Z,21.49
2017-07-17T13:55:14.985Z,21.53
2017-07-17T13:55:28.412Z,21.52
2017-07-17T13:55:41.843Z,21.52
2017-07-17T13:55:55.297Z,21.52
2017-07-17T13:56:08.187Z,21.58
2017-07-17T13:56:21.668Z,21.55
2017-07-17T13:56:35.149Z,21.53
2017-07-17T13:56:48.580Z,21.55
2017-07-17T13:57:02.096Z,21.59
2017-07-17T13:57:15.037Z,21.59
2017-07-17T13:57:28.461Z,21.56
2017-07-17T13:57:41.960Z,21.62
2017-07-17T13:57:55.407Z,21.59
2017-07-17T13:58:08.340Z,21.62
2017-07-17T13:58:21.739Z,21.62
2017-07-17T13:58:35.241Z,21.62
2017-07-17T13:58:48.670Z,21.64
2017-07-17T13:59:01.607Z,21.61
2017-07-17T13:59:15.149Z,21.53
2017-07-17T13:59:28.171Z,21.64
2017-07-17T13:59:41.583Z,21.58
2017-07-17T13:59:55.015Z,21.67
2017-07-17T14:00:07.994Z,21.67
2017-07-17T14:00:20.412Z,21.67
2017-07-17T14:00:33.883Z,21.64
2017-07-17T14:00:47.362Z,21.76
2017-07-17T14:01:00.327Z,21.68
2017-07-17T14:01:13.820Z,21.73
2017-07-17T14:01:27.259Z,21.82
2017-07-17T14:01:40.170Z,21.74
2017-07-17T14:01:53.075Z,21.71
2017-07-17T14:02:06.015Z,21.77
2017-07-17T14:02:18.952Z,21.74
2017-07-17T14:02:32.407Z,21.74
2017-07-17T14:02:45.846Z,21.76
2017-07-17T14:02:58.816Z,21.7
2017-07-17T14:03:11.753Z,21.71
2017-07-17T14:03:25.260Z,21.77
2017-07-17T14:03:38.729Z,21.74
2017-07-17T14:03:52.107Z,21.82
2017-07-17T14:04:05.487Z,21.77
2017-07-17T14:04:19.050Z,21.85
2017-07-17T14:04:31.436Z,21.83
2017-07-17T14:04:44.332Z,21.77
2017-07-17T14:04:57.285Z,21.77
2017-07-17T14:05:10.777Z,21.86
2017-07-17T14:05:24.306Z,21.86
2017-07-17T14:05:37.754Z,21.83
2017-07-17T14:05:51.199Z,21.9
2017-07-17T14:06:04.645Z,21.92
2017-07-17T14:06:17.059Z,21.92
2017-07-17T14:06:30.532Z,21.85
2017-07-17T14:06:43.992Z,21.86
2017-07-17T14:06:57.376Z,22.02
2017-07-17T14:07:10.843Z,21.92
2017-07-17T14:07:24.311Z,21.94
2017-07-17T14:07:37.822Z,21.99
2017-07-17T14:07:50.734Z,21.9
2017-07-17T14:08:03.662Z,21.96
2017-07-17T14:08:16.575Z,22.04
2017-07-17T14:08:30.023Z,22.04
2017-07-17T14:08:42.938Z,21.96
2017-07-17T14:08:56.359Z,21.99
2017-07-17T14:09:09.819Z,22.02
2017-07-17T14:09:23.290Z,21.99
2017-07-17T14:09:36.280Z,21.99
2017-07-17T14:09:49.300Z,21.92
2017-07-17T14:10:02.732Z,21.93
2017-07-17T14:10:15.615Z,21.94
2017-07-17T14:10:29.038Z,22.04
2017-07-17T14:10:42.002Z,22.02
2017-07-17T14:10:54.930Z,21.92
2017-07-17T14:11:08.359Z,21.96
2017-07-17T14:11:21.342Z,21.89
2017-07-17T14:11:33.751Z,21.93
2017-07-17T14:11:46.695Z,22.02
2017-07-17T14:11:59.681Z,21.92
2017-07-17T14:12:12.089Z,22.09
2017-07-17T14:12:25.021Z,22.07
2017-07-17T14:12:37.882Z,22.02
2017-07-17T14:12:51.326Z,22.04
2017-07-17T14:13:04.234Z,22.05
2017-07-17T14:13:17.670Z,22.05
2017-07-17T14:13:31.075Z,22.11
2017-07-17T14:13:44.063Z,22.05
2017-07-17T14:13:56.955Z,22.07
2017-07-17T14:14:10.504Z,22.08
2017-07-17T14:14:23.462Z,22.14
2017-07-17T14:14:36.929Z,22.12
2017-07-17T14:14:49.852Z,22.08
2017-07-17T14:15:03.295Z,22.08
2017-07-17T14:15:16.165Z,22.12
2017-07-17T14:15:29.574Z,22.07
2017-07-17T14:15:42.484Z,22.09
2017-07-17T14:15:55.919Z,22.08
2017-07-17T14:16:09.399Z,22.08
2017-07-17T14:16:22.313Z,22.11
2017-07-17T14:16:35.786Z,22.11
2017-07-17T14:16:48.735Z,22.14
2017-07-17T14:17:01.664Z,22.11
2017-07-17T14:17:14.079Z,22.09
2017-07-17T14:17:26.464Z,22.14
2017-07-17T14:17:39.898Z,22.12
2017-07-17T14:17:52.816Z,22.12
2017-07-17T14:18:05.228Z,22.11
2017-07-17T14:18:18.190Z,22.14
2017-07-17T14:18:31.686Z,22.2
2017-07-17T14:18:45.199Z,22.22
2017-07-17T14:18:58.710Z,22.18
2017-07-17T14:19:12.106Z,22.23
2017-07-17T14:19:26.182Z,22.15
2017-07-17T14:19:39.594Z,22.22
2017-07-17T14:19:52.504Z,22.33
2017-07-17T14:20:05.459Z,22.24
2017-07-17T14:20:18.952Z,22.24
2017-07-17T14:20:31.801Z,22.23
2017-07-17T14:20:44.751Z,22.23
2017-07-17T14:20:58.169Z,22.3
2017-07-17T14:21:11.099Z,22.29
2017-07-17T14:21:24.533Z,22.33
2017-07-17T14:21:37.446Z,22.29
2017-07-17T14:21:49.854Z,22.27
2017-07-17T14:22:03.295Z,22.27
2017-07-17T14:22:16.761Z,22.27
2017-07-17T14:22:30.248Z,22.36
2017-07-17T14:22:43.246Z,22.36
2017-07-17T14:22:56.666Z,22.39
2017-07-17T14:23:09.598Z,22.36
2017-07-17T14:23:23.034Z,22.41
2017-07-17T14:23:36.048Z,22.39
2017-07-17T14:23:49.002Z,22.36
2017-07-17T14:24:02.444Z,22.42
2017-07-17T14:24:15.345Z,22.3
2017-07-17T14:24:28.279Z,22.44
2017-07-17T14:24:41.735Z,22.42
2017-07-17T14:24:53.602Z,22.44
2017-07-17T14:25:05.999Z,22.39
2017-07-17T14:25:18.914Z,22.34
2017-07-17T14:25:32.315Z,22.44
2017-07-17T14:25:45.226Z,22.39
2017-07-17T14:25:58.171Z,22.42
2017-07-17T14:26:11.092Z,22.34
2017-07-17T14:26:23.528Z,22.46
2017-07-17T14:26:36.990Z,22.39
2017-07-17T14:26:49.340Z,22.45
2017-07-17T14:27:01.739Z,22.39
2017-07-17T14:27:15.188Z,22.44
2017-07-17T14:27:28.104Z,22.42
2017-07-17T14:27:41.598Z,22.49
2017-07-17T14:27:54.991Z,22.42
2017-07-17T14:28:07.386Z,22.36
2017-07-17T14:28:20.337Z,22.44
2017-07-17T14:28:33.761Z,22.44
2017-07-17T14:28:46.669Z,22.44
2017-07-17T14:28:59.550Z,22.55
2017-07-17T14:29:12.429Z,22.54
2017-07-17T14:29:25.928Z,22.57
2017-07-17T14:29:39.402Z,22.51
2017-07-17T14:29:52.880Z,22.52
2017-07-17T14:30:04.753Z,22.51
2017-07-17T14:30:18.236Z,22.54
2017-07-17T14:30:31.708Z,22.54
2017-07-17T14:30:45.117Z,22.54
2017-07-17T14:30:58.078Z,22.52
2017-07-17T14:31:11.557Z,22.55
2017-07-17T14:31:25.017Z,22.51
2017-07-17T14:31:38.439Z,22.6
2017-07-17T14:31:51.288Z,22.59
2017-07-17T14:32:04.306Z,22.55
2017-07-17T14:32:17.843Z,22.59
2017-07-17T14:32:31.355Z,22.61
2017-07-17T14:32:44.761Z,22.59
2017-07-17T14:32:58.158Z,22.64
2017-07-17T14:33:11.077Z,22.59
2017-07-17T14:33:24.540Z,22.61
2017-07-17T14:33:37.964Z,22.57
2017-07-17T14:33:51.391Z,22.61